createdAt,value
2023-03-11T00:00:31.542Z,16.70
2023-03-11T00:02:59.236Z,16.80
2023-03-11T00:05:27.442Z,16.70
2023-03-11T00:07:54.418Z,16.70
2023-03-11T00:10:25.944Z,16.70
2023-03-11T00:12:53.220Z,16.70
2023-03-11T00:15:19.833Z,16.70
2023-03-11T00:17:47.824Z,16.70
2023-03-11T00:20:28.074Z,16.70
2023-03-11T00:22:54.914Z,16.70
2023-03-11T00:25:23.176Z,16.70
2023-03-11T00:27:49.925Z,16.70
2023-03-11T00:30:17.093Z,16.70
2023-03-11T00:32:43.897Z,16.60
2023-03-11T00:35:14.188Z,16.70
2023-03-11T00:37:40.782Z,16.70
2023-03-11T00:40:10.924Z,16.70
2023-03-11T00:42:37.471Z,16.70
2023-03-11T00:45:04.187Z,16.70
2023-03-11T00:47:30.752Z,16.70
2023-03-11T00:49:57.294Z,16.70
2023-03-11T00:52:23.854Z,16.70
2023-03-11T00:54:50.442Z,16.70
2023-03-11T00:57:17.126Z,16.70
2023-03-11T00:59:43.713Z,16.80
2023-03-11T01:02:10.271Z,16.70
2023-03-11T01:04:36.864Z,16.70
2023-03-11T01:07:03.562Z,16.70
2023-03-11T01:09:30.121Z,16.70
2023-03-11T01:11:56.812Z,16.70
2023-03-11T01:14:23.555Z,16.70
2023-03-11T01:16:50.253Z,16.70
2023-03-11T01:19:16.972Z,16.70
2023-03-11T01:21:43.647Z,16.70
2023-03-11T01:24:10.636Z,16.70
2023-03-11T01:26:37.338Z,16.70
2023-03-11T01:29:04.043Z,16.80
2023-03-11T01:31:30.881Z,16.80
2023-03-11T01:33:57.478Z,16.80
2023-03-11T01:36:24.024Z,16.90
2023-03-11T01:38:50.600Z,16.90
2023-03-11T01:41:17.485Z,16.90
2023-03-11T01:43:44.041Z,16.90
2023-03-11T01:46:21.706Z,16.90
2023-03-11T01:48:49.953Z,16.80
2023-03-11T01:51:21.474Z,16.80
2023-03-11T01:53:48.419Z,16.80
2023-03-11T01:56:15.179Z,16.80
2023-03-11T01:58:44.892Z,16.80
2023-03-11T02:01:12.452Z,16.80
2023-03-11T02:03:40.700Z,16.80
2023-03-11T02:06:09.124Z,16.80
2023-03-11T02:08:35.777Z,16.80
2023-03-11T02:11:03.596Z,16.80
2023-03-11T02:13:31.645Z,16.80
2023-03-11T02:16:00.594Z,16.80
2023-03-11T02:18:27.531Z,16.80
2023-03-11T02:21:09.244Z,16.80
2023-03-11T02:23:52.202Z,16.80
2023-03-11T02:26:22.877Z,16.80
2023-03-11T02:28:50.125Z,16.80
2023-03-11T02:31:16.906Z,16.80
2023-03-11T02:33:45.551Z,16.90
2023-03-11T02:36:30.291Z,16.80
2023-03-11T02:38:56.830Z,16.80
2023-03-11T02:41:23.544Z,16.80
2023-03-11T02:43:50.261Z,16.80
2023-03-11T02:46:17.764Z,16.80
2023-03-11T02:48:44.679Z,16.80
2023-03-11T02:51:11.221Z,16.90
2023-03-11T02:53:40.824Z,16.70
2023-03-11T02:56:07.392Z,16.80
2023-03-11T02:58:34.188Z,16.70
2023-03-11T03:01:00.764Z,16.70
2023-03-11T03:03:27.338Z,16.70
2023-03-11T03:05:53.901Z,16.80
2023-03-11T03:08:20.511Z,16.80
2023-03-11T03:10:47.411Z,16.70
2023-03-11T03:13:14.054Z,16.80
2023-03-11T03:15:40.612Z,16.90
2023-03-11T03:18:07.413Z,16.80
2023-03-11T03:20:33.961Z,16.80
2023-03-11T03:23:00.565Z,16.80
2023-03-11T03:25:27.175Z,16.70
2023-03-11T03:27:53.864Z,16.80
2023-03-11T03:30:20.606Z,16.90
2023-03-11T03:32:47.186Z,16.90
2023-03-11T03:35:13.779Z,17.00
2023-03-11T03:37:40.374Z,17.00
2023-03-11T03:40:07.835Z,17.00
2023-03-11T03:42:37.790Z,17.00
2023-03-11T03:45:06.076Z,17.00
2023-03-11T03:47:33.254Z,17.00
2023-03-11T03:49:59.851Z,17.00
2023-03-11T03:52:26.422Z,17.00
2023-03-11T03:54:52.988Z,17.00
2023-03-11T03:57:19.591Z,17.00
2023-03-11T03:59:46.154Z,17.00
2023-03-11T04:02:12.870Z,17.00
2023-03-11T04:04:39.736Z,16.90
2023-03-11T04:07:06.617Z,16.90
2023-03-11T04:09:33.586Z,17.00
2023-03-11T04:12:00.214Z,17.00
2023-03-11T04:14:26.788Z,17.00
2023-03-11T04:16:53.531Z,16.90
2023-03-11T04:19:20.137Z,17.00
2023-03-11T04:21:46.713Z,16.90
2023-03-11T04:24:13.278Z,16.90
2023-03-11T04:26:39.935Z,16.90
2023-03-11T04:29:06.543Z,16.90
2023-03-11T04:31:33.203Z,16.90
2023-03-11T04:33:59.804Z,16.90
2023-03-11T04:36:26.425Z,16.90
2023-03-11T04:38:53.073Z,16.90
2023-03-11T04:41:19.648Z,16.90
2023-03-11T04:43:46.230Z,16.90
2023-03-11T04:46:12.894Z,16.90
2023-03-11T04:48:39.560Z,16.80
2023-03-11T04:51:06.218Z,16.80
2023-03-11T04:53:33.250Z,16.90
2023-03-11T04:55:59.822Z,17.00
2023-03-11T04:58:26.368Z,16.90
2023-03-11T05:00:53.172Z,17.00
2023-03-11T05:03:19.762Z,16.90
2023-03-11T05:05:46.420Z,16.90
2023-03-11T05:08:12.971Z,17.00
2023-03-11T05:10:41.811Z,16.90
2023-03-11T05:13:08.555Z,16.90
2023-03-11T05:15:35.452Z,16.90
2023-03-11T05:18:02.164Z,16.90
2023-03-11T05:20:28.748Z,16.90
2023-03-11T05:22:55.300Z,16.90
2023-03-11T05:25:21.935Z,17.00
2023-03-11T05:27:48.493Z,17.10
2023-03-11T05:30:15.416Z,17.30
2023-03-11T05:32:42.134Z,17.20
2023-03-11T05:35:08.867Z,17.20
2023-03-11T05:37:35.972Z,17.20
2023-03-11T05:42:29.076Z,18.10
2023-03-11T05:44:55.625Z,17.20
2023-03-11T05:47:22.230Z,17.20
2023-03-11T05:49:49.181Z,17.10
2023-03-11T05:52:16.144Z,17.10
2023-03-11T05:54:42.807Z,17.60
2023-03-11T05:57:09.384Z,17.10
2023-03-11T05:59:37.747Z,17.30
2023-03-11T06:02:04.528Z,17.10
2023-03-11T06:04:31.629Z,17.10
2023-03-11T06:06:58.334Z,17.10
2023-03-11T06:09:24.919Z,17.00
2023-03-11T06:11:51.496Z,17.00
2023-03-11T06:14:18.077Z,17.00
2023-03-11T06:16:44.618Z,17.20
2023-03-11T06:19:11.270Z,17.00
2023-03-11T06:21:37.934Z,17.00
2023-03-11T06:24:05.009Z,17.30
2023-03-11T06:26:31.567Z,17.10
2023-03-11T06:28:58.208Z,17.10
2023-03-11T06:31:25.957Z,17.10
2023-03-11T06:33:53.241Z,17.00
2023-03-11T06:36:20.408Z,17.10
2023-03-11T06:38:48.452Z,17.10
2023-03-11T06:41:15.011Z,17.20
2023-03-11T06:43:41.604Z,17.00
2023-03-11T06:46:12.347Z,17.00
2023-03-11T06:48:39.193Z,17.00
2023-03-11T06:51:05.832Z,17.00
2023-03-11T06:53:32.589Z,17.00
2023-03-11T06:56:03.920Z,17.10
2023-03-11T06:58:30.808Z,17.10
2023-03-11T07:01:04.546Z,17.20
2023-03-11T07:03:31.148Z,17.20
2023-03-11T07:05:58.505Z,17.20
2023-03-11T07:08:25.428Z,17.30
2023-03-11T07:11:00.899Z,17.30
2023-03-11T07:13:27.722Z,17.30
2023-03-11T07:16:04.848Z,17.20
2023-03-11T07:18:31.922Z,17.20
2023-03-11T07:20:58.524Z,17.40
2023-03-11T07:23:25.079Z,17.50
2023-03-11T07:25:52.843Z,17.10
2023-03-11T07:28:19.452Z,17.10
2023-03-11T07:30:48.525Z,17.10
2023-03-11T07:33:15.619Z,17.10
2023-03-11T07:35:42.212Z,17.10
2023-03-11T07:38:08.870Z,17.10
2023-03-11T07:40:35.472Z,17.10
2023-03-11T07:43:02.070Z,17.20
2023-03-11T07:45:28.677Z,17.10
2023-03-11T07:47:55.936Z,17.10
2023-03-11T07:50:22.591Z,17.10
2023-03-11T07:52:49.181Z,17.10
2023-03-11T07:55:15.875Z,17.10
2023-03-11T07:57:42.823Z,17.10
2023-03-11T08:00:10.324Z,17.10
2023-03-11T08:02:36.907Z,17.10
2023-03-11T08:05:03.662Z,17.20
2023-03-11T08:07:31.574Z,17.10
2023-03-11T08:09:58.228Z,17.10
2023-03-11T08:12:24.880Z,17.10
2023-03-11T08:14:51.416Z,17.20
2023-03-11T08:17:17.980Z,17.10
2023-03-11T08:19:44.569Z,17.10
2023-03-11T08:22:11.167Z,17.10
2023-03-11T08:24:37.715Z,17.20
2023-03-11T08:27:04.290Z,17.30
2023-03-11T08:29:30.889Z,17.30
2023-03-11T08:31:57.459Z,17.30
2023-03-11T08:34:24.082Z,18.20
2023-03-11T08:36:50.858Z,17.50
2023-03-11T08:39:17.466Z,17.40
2023-03-11T08:41:44.077Z,17.40
2023-03-11T08:44:10.674Z,17.40
2023-03-11T08:46:38.681Z,17.40
2023-03-11T08:49:05.987Z,17.40
2023-03-11T08:51:33.499Z,17.40
2023-03-11T08:54:00.592Z,17.50
2023-03-11T08:56:27.696Z,17.30
2023-03-11T08:58:54.574Z,17.30
2023-03-11T09:01:22.897Z,17.20
2023-03-11T09:03:49.462Z,17.20
2023-03-11T09:06:16.970Z,17.20
2023-03-11T09:08:44.315Z,17.20
2023-03-11T09:11:13.448Z,17.20
2023-03-11T09:13:41.094Z,17.20
2023-03-11T09:16:09.821Z,17.60
2023-03-11T09:18:36.508Z,17.20
2023-03-11T09:21:03.115Z,17.20
2023-03-11T09:23:29.704Z,17.20
2023-03-11T09:25:56.416Z,17.20
2023-03-11T09:28:23.361Z,17.20
2023-03-11T09:30:49.986Z,17.20
2023-03-11T09:33:16.570Z,17.10
2023-03-11T09:35:43.158Z,17.20
2023-03-11T09:38:09.772Z,17.10
2023-03-11T09:40:47.263Z,17.30
2023-03-11T09:43:23.847Z,17.10
2023-03-11T09:46:08.848Z,17.20
2023-03-11T09:48:40.627Z,17.10
2023-03-11T09:51:15.375Z,17.10
2023-03-11T09:53:43.226Z,17.10
2023-03-11T09:56:11.638Z,17.10
2023-03-11T09:58:50.545Z,17.10
2023-03-11T10:01:26.336Z,17.10
2023-03-11T10:03:55.003Z,17.10
2023-03-11T10:06:23.053Z,17.10
2023-03-11T10:09:10.418Z,17.10
2023-03-11T10:11:45.355Z,17.10
2023-03-11T10:14:22.388Z,17.10
2023-03-11T10:16:56.901Z,17.20
2023-03-11T10:19:30.223Z,17.30
2023-03-11T10:21:59.677Z,17.40
2023-03-11T10:24:38.254Z,17.30
2023-03-11T10:27:19.180Z,17.30
2023-03-11T10:29:54.941Z,17.40
2023-03-11T10:32:29.961Z,17.40
2023-03-11T10:35:04.417Z,17.50
2023-03-11T10:37:47.919Z,17.40
2023-03-11T10:40:30.120Z,17.30
2023-03-11T10:42:58.656Z,17.30
2023-03-11T10:45:25.774Z,17.30
2023-03-11T10:47:52.450Z,17.30
2023-03-11T10:50:19.798Z,17.30
2023-03-11T10:53:04.636Z,17.30
2023-03-11T10:55:31.200Z,17.30
2023-03-11T10:58:08.075Z,17.30
2023-03-11T11:00:34.692Z,17.30
2023-03-11T11:03:02.043Z,17.30
2023-03-11T11:05:30.328Z,17.30
2023-03-11T11:08:06.361Z,17.30
2023-03-11T11:10:34.151Z,17.30
2023-03-11T11:13:00.835Z,17.30
2023-03-11T11:15:34.845Z,17.20
2023-03-11T11:18:06.773Z,17.20
2023-03-11T11:20:34.365Z,17.20
2023-03-11T11:23:01.888Z,17.20
2023-03-11T11:25:31.404Z,17.30
2023-03-11T11:27:59.788Z,17.20
2023-03-11T11:30:27.203Z,17.20
2023-03-11T11:32:55.646Z,17.20
2023-03-11T11:35:24.746Z,17.20
2023-03-11T11:37:59.699Z,17.30
2023-03-11T11:43:00.629Z,17.40
2023-03-11T11:45:38.242Z,17.50
2023-03-11T11:48:07.302Z,17.50
2023-03-11T11:50:42.027Z,17.50
2023-03-11T11:53:27.459Z,16.80
2023-03-11T11:55:54.161Z,17.40
2023-03-11T11:58:21.185Z,17.50
2023-03-11T12:00:59.956Z,17.50
2023-03-11T12:03:43.752Z,17.50
2023-03-11T12:06:18.016Z,17.40
2023-03-11T12:08:56.149Z,17.40
2023-03-11T12:11:42.971Z,17.40
2023-03-11T12:14:15.042Z,17.50
2023-03-11T12:16:55.743Z,17.40
2023-03-11T12:19:31.182Z,17.40
2023-03-11T12:22:19.623Z,17.30
2023-03-11T12:24:46.194Z,17.30
2023-03-11T12:27:23.387Z,17.30
2023-03-11T12:29:52.741Z,17.20
2023-03-11T12:32:25.427Z,17.20
2023-03-11T12:34:52.077Z,17.60
2023-03-11T12:37:20.646Z,17.20
2023-03-11T12:39:47.251Z,17.20
2023-03-11T12:42:13.797Z,17.50
2023-03-11T12:44:40.866Z,17.30
2023-03-11T12:47:07.436Z,17.50
2023-03-11T12:49:35.624Z,17.20
2023-03-11T12:52:04.120Z,17.20
2023-03-11T12:54:32.165Z,17.20
2023-03-11T12:57:04.292Z,17.20
2023-03-11T12:59:30.875Z,17.20
2023-03-11T13:02:11.713Z,17.20
2023-03-11T13:04:38.284Z,17.20
2023-03-11T13:07:23.159Z,17.40
2023-03-11T13:10:00.755Z,17.40
2023-03-11T13:12:45.813Z,17.40
2023-03-11T13:15:18.622Z,17.50
2023-03-11T13:18:05.205Z,17.50
2023-03-11T13:20:43.909Z,17.50
2023-03-11T13:23:13.782Z,17.60
2023-03-11T13:25:58.009Z,17.60
2023-03-11T13:28:43.258Z,17.50
2023-03-11T13:31:29.517Z,17.50
2023-03-11T13:33:57.855Z,17.40
2023-03-11T13:36:43.273Z,17.40
2023-03-11T13:39:26.735Z,17.40
2023-03-11T13:41:53.584Z,17.30
2023-03-11T13:44:20.171Z,17.30
2023-03-11T13:46:51.391Z,17.30
2023-03-11T13:49:20.995Z,17.20
2023-03-11T13:51:48.850Z,17.30
2023-03-11T13:54:20.051Z,17.30
2023-03-11T13:56:50.993Z,16.70
2023-03-11T13:59:26.757Z,17.20
2023-03-11T14:02:13.593Z,17.20
2023-03-11T14:04:42.119Z,17.20
2023-03-11T14:07:13.153Z,17.20
2023-03-11T14:09:39.952Z,17.20
2023-03-11T14:12:09.949Z,17.20
2023-03-11T14:14:45.057Z,17.10
2023-03-11T14:17:15.623Z,17.10
2023-03-11T14:19:42.730Z,17.40
2023-03-11T14:22:10.229Z,17.10
2023-03-11T14:24:37.976Z,17.20
2023-03-11T14:27:07.972Z,17.10
2023-03-11T14:29:34.495Z,17.10
2023-03-11T14:32:01.245Z,17.10
2023-03-11T14:34:28.847Z,17.30
2023-03-11T14:36:57.294Z,17.10
2023-03-11T14:39:25.414Z,17.10
2023-03-11T14:41:53.602Z,17.30
2023-03-11T14:44:21.007Z,17.10
2023-03-11T14:46:48.973Z,17.20
2023-03-11T14:49:21.109Z,17.20
2023-03-11T14:51:51.292Z,17.30
2023-03-11T14:54:21.408Z,17.40
2023-03-11T14:56:51.221Z,17.40
2023-03-11T14:59:32.172Z,17.40
2023-03-11T15:02:03.668Z,17.50
2023-03-11T15:04:33.241Z,17.50
2023-03-11T15:07:00.554Z,17.50
2023-03-11T15:09:27.885Z,17.50
2023-03-11T15:11:55.567Z,17.50
2023-03-11T15:14:24.455Z,17.50
2023-03-11T15:16:51.611Z,17.50
2023-03-11T15:19:23.017Z,17.40
2023-03-11T15:21:50.950Z,17.30
2023-03-11T15:24:22.034Z,17.40
2023-03-11T15:27:08.328Z,17.30
2023-03-11T15:29:36.035Z,17.30
2023-03-11T15:32:21.265Z,17.30
2023-03-11T15:34:59.050Z,17.30
2023-03-11T15:37:26.516Z,17.30
2023-03-11T15:39:53.248Z,17.20
2023-03-11T15:42:22.132Z,17.30
2023-03-11T15:44:52.572Z,17.20
2023-03-11T15:47:20.621Z,17.20
2023-03-11T15:49:47.875Z,17.20
2023-03-11T15:52:14.949Z,17.50
2023-03-11T15:54:42.274Z,17.10
2023-03-11T15:57:12.897Z,17.10
2023-03-11T15:59:41.145Z,17.10
2023-03-11T16:02:15.857Z,17.10
2023-03-11T16:04:42.521Z,17.10
2023-03-11T16:07:09.144Z,17.10
2023-03-11T16:09:35.722Z,17.40
2023-03-11T16:12:09.198Z,17.10
2023-03-11T16:14:35.750Z,17.10
2023-03-11T16:17:02.336Z,17.10
2023-03-11T16:19:28.923Z,17.10
2023-03-11T16:21:55.510Z,17.00
2023-03-11T16:24:24.027Z,17.00
2023-03-11T16:26:52.213Z,17.00
2023-03-11T16:29:19.973Z,17.00
2023-03-11T16:31:47.047Z,17.00
2023-03-11T16:34:13.777Z,17.00
2023-03-11T16:36:40.422Z,17.00
2023-03-11T16:39:06.983Z,17.00
2023-03-11T16:41:43.689Z,17.10
2023-03-11T16:44:10.289Z,17.10
2023-03-11T16:46:37.263Z,17.10
2023-03-11T16:49:04.038Z,17.10
2023-03-11T16:51:30.828Z,17.10
2023-03-11T16:53:57.408Z,17.10
2023-03-11T16:56:24.081Z,17.10
2023-03-11T16:58:51.060Z,17.10
2023-03-11T17:01:19.031Z,17.10
2023-03-11T17:03:48.743Z,17.00
2023-03-11T17:06:16.250Z,17.00
2023-03-11T17:08:46.120Z,17.00
2023-03-11T17:11:22.582Z,17.00
2023-03-11T17:13:50.458Z,16.40
2023-03-11T17:16:17.114Z,16.90
2023-03-11T17:18:43.739Z,16.90
2023-03-11T17:21:11.421Z,16.90
2023-03-11T17:23:38.000Z,17.00
2023-03-11T17:26:09.617Z,17.00
2023-03-11T17:28:36.252Z,17.00
2023-03-11T17:31:02.881Z,17.00
2023-03-11T17:33:29.621Z,17.00
2023-03-11T17:36:06.671Z,17.00
2023-03-11T17:38:33.319Z,17.00
2023-03-11T17:40:59.917Z,17.00
2023-03-11T17:43:26.534Z,17.10
2023-03-11T17:45:53.899Z,17.10
2023-03-11T17:48:21.260Z,17.10
2023-03-11T17:50:47.844Z,17.10
2023-03-11T17:53:14.412Z,17.20
2023-03-11T17:55:41.293Z,17.30
2023-03-11T17:58:08.458Z,17.30
2023-03-11T18:00:35.174Z,17.30
2023-03-11T18:03:01.944Z,17.30
2023-03-11T18:05:28.510Z,17.30
2023-03-11T18:07:55.132Z,17.30
2023-03-11T18:10:21.748Z,17.30
2023-03-11T18:12:48.423Z,17.30
2023-03-11T18:15:18.959Z,17.30
2023-03-11T18:17:46.311Z,17.30
2023-03-11T18:20:13.704Z,17.20
2023-03-11T18:22:46.708Z,17.20
2023-03-11T18:25:13.997Z,17.10
2023-03-11T18:27:40.621Z,17.20
2023-03-11T18:30:08.188Z,17.20
2023-03-11T18:32:34.837Z,17.10
2023-03-11T18:35:01.531Z,17.10
2023-03-11T18:37:28.120Z,17.10
2023-03-11T18:39:54.730Z,17.10
2023-03-11T18:42:21.349Z,17.10
2023-03-11T18:44:47.959Z,17.10
2023-03-11T18:47:14.543Z,17.10
2023-03-11T18:49:41.119Z,17.10
2023-03-11T18:52:07.731Z,17.10
2023-03-11T18:54:34.297Z,17.00
2023-03-11T18:57:00.875Z,17.10
2023-03-11T18:59:27.796Z,17.10
2023-03-11T19:01:54.639Z,17.10
2023-03-11T19:04:21.369Z,17.10
2023-03-11T19:06:50.109Z,17.10
2023-03-11T19:09:18.356Z,17.40
2023-03-11T19:11:45.527Z,17.10
2023-03-11T19:14:12.572Z,17.10
2023-03-11T19:16:39.420Z,17.20
2023-03-11T19:19:06.151Z,17.20
2023-03-11T19:21:33.111Z,17.10
2023-03-11T19:24:00.182Z,17.10
2023-03-11T19:26:43.319Z,17.10
2023-03-11T19:29:11.381Z,17.10
2023-03-11T19:31:38.016Z,17.10
2023-03-11T19:34:04.598Z,17.00
2023-03-11T19:36:31.372Z,17.00
2023-03-11T19:38:57.967Z,17.00
2023-03-11T19:41:24.538Z,17.10
2023-03-11T19:43:52.140Z,16.90
2023-03-11T19:46:20.236Z,16.90
2023-03-11T19:48:46.991Z,16.90
2023-03-11T19:51:13.639Z,16.90
2023-03-11T19:53:41.571Z,16.80
2023-03-11T19:56:08.774Z,16.80
2023-03-11T19:58:35.721Z,16.80
2023-03-11T20:01:02.344Z,16.80
2023-03-11T20:03:29.084Z,16.70
2023-03-11T20:05:57.742Z,16.80
2023-03-11T20:08:24.921Z,16.80
2023-03-11T20:10:53.021Z,16.80
2023-03-11T20:13:20.344Z,16.70
2023-03-11T20:15:47.045Z,16.70
2023-03-11T20:18:13.805Z,16.70
2023-03-11T20:20:43.045Z,16.70
2023-03-11T20:23:10.216Z,16.70
2023-03-11T20:25:40.193Z,16.70
2023-03-11T20:28:08.272Z,16.70
2023-03-11T20:30:34.956Z,16.70
2023-03-11T20:33:01.674Z,16.70
2023-03-11T20:35:28.312Z,16.70
2023-03-11T20:37:55.060Z,16.70
2023-03-11T20:40:21.910Z,16.70
2023-03-11T20:42:48.521Z,16.70
2023-03-11T20:45:16.292Z,16.60
2023-03-11T20:47:44.196Z,16.70
2023-03-11T20:50:12.453Z,16.70
2023-03-11T20:52:39.356Z,16.70
2023-03-11T20:55:08.295Z,16.70
2023-03-11T20:57:35.138Z,16.80
2023-03-11T21:00:02.026Z,16.80
2023-03-11T21:02:30.922Z,16.80
2023-03-11T21:04:57.548Z,16.80
2023-03-11T21:07:24.360Z,16.80
2023-03-11T21:09:54.578Z,16.80
2023-03-11T21:12:21.560Z,16.80
2023-03-11T21:14:48.189Z,16.80
2023-03-11T21:17:14.958Z,16.80
2023-03-11T21:19:41.568Z,16.80
2023-03-11T21:22:08.427Z,16.80
2023-03-11T21:24:35.083Z,16.80
2023-03-11T21:27:01.877Z,16.80
2023-03-11T21:29:30.658Z,16.70
2023-03-11T21:31:57.563Z,16.70
2023-03-11T21:34:24.276Z,16.70
2023-03-11T21:36:51.010Z,16.70
2023-03-11T21:39:17.860Z,16.70
2023-03-11T21:41:44.532Z,16.70
2023-03-11T21:44:11.293Z,16.70
2023-03-11T21:46:38.144Z,16.60
2023-03-11T21:49:04.801Z,16.60
2023-03-11T21:51:31.637Z,16.60
2023-03-11T21:53:59.259Z,16.60
2023-03-11T21:56:26.049Z,16.60
2023-03-11T21:58:53.697Z,16.60
2023-03-11T22:01:20.452Z,16.60
2023-03-11T22:03:48.036Z,16.60
2023-03-11T22:06:14.897Z,16.60
2023-03-11T22:08:42.513Z,16.60
2023-03-11T22:11:18.329Z,16.90
2023-03-11T22:13:46.678Z,16.60
2023-03-11T22:16:13.813Z,16.60
2023-03-11T22:18:40.559Z,16.60
2023-03-11T22:21:10.288Z,16.60
2023-03-11T22:23:37.075Z,16.60
2023-03-11T22:26:03.748Z,16.60
2023-03-11T22:28:30.903Z,16.60
2023-03-11T22:30:57.481Z,16.60
2023-03-11T22:33:24.066Z,16.60
2023-03-11T22:35:55.092Z,16.60
2023-03-11T22:38:22.091Z,16.60
2023-03-11T22:40:48.733Z,16.60
2023-03-11T22:43:15.493Z,16.60
2023-03-11T22:45:42.081Z,16.60
2023-03-11T22:48:08.718Z,16.60
2023-03-11T22:50:35.260Z,16.60
2023-03-11T22:53:01.840Z,16.60
2023-03-11T22:55:28.371Z,16.60
2023-03-11T22:57:54.975Z,16.60
2023-03-11T23:00:21.499Z,16.60
2023-03-11T23:02:48.683Z,16.60
2023-03-11T23:05:15.595Z,16.60
2023-03-11T23:07:42.280Z,16.60
2023-03-11T23:10:09.853Z,16.50
2023-03-11T23:12:36.932Z,16.60
2023-03-11T23:15:05.958Z,16.60
2023-03-11T23:17:32.553Z,16.70
2023-03-11T23:19:59.231Z,16.70
2023-03-11T23:22:25.793Z,16.70
2023-03-11T23:24:52.758Z,16.80
2023-03-11T23:27:19.443Z,16.80
2023-03-11T23:29:47.773Z,16.70
2023-03-11T23:32:14.458Z,16.70
2023-03-11T23:34:41.160Z,16.70
2023-03-11T23:37:07.727Z,16.70
2023-03-11T23:39:34.973Z,16.70
2023-03-11T23:42:04.929Z,16.80
2023-03-11T23:44:35.778Z,16.70
2023-03-11T23:47:02.338Z,16.70
2023-03-11T23:49:28.914Z,17.40
2023-03-11T23:51:55.471Z,16.70
2023-03-11T23:54:22.047Z,16.70
2023-03-11T23:56:48.600Z,16.70
2023-03-11T23:59:15.182Z,16.60
